.
WxDataArchive / Data Records for 2006-10-21
2006-10-20 October 2006 2006-10-22

Data Records for Saturday, 21 October 2006

Time	Temp	Chill	HIndex	Humid	Dewpt	 Wind 	HiWind	WindDir	Rain 	Barom 
-----	----	-----	------	-----	-----	------	------	-------	-----	----- 
00:00	43.6	43.6	43.6	74	35.9	0	2	248	0.00	29.893 
00:05	43.6	43.6	43.6	73	35.5	0	1	248	0.00	29.893 
00:10	43.6	43.6	43.6	73	35.5	0	1	248	0.00	29.893 
00:15	43.5	43.5	43.5	73	35.4	0	1	248	0.00	29.891 
00:20	43.3	43.3	43.3	74	35.6	0	1	248	0.00	29.891 
00:25	43.2	43.2	43.2	74	35.5	0	1	248	0.00	29.891 
00:30	43.1	43.1	43.1	74	35.4	0	1	248	0.00	29.890 
00:35	42.8	42.8	42.8	74	35.1	0	1	248	0.00	29.890 
00:40	42.6	42.6	42.6	75	35.2	0	1	248	0.00	29.890 
00:45	42.6	42.6	42.6	75	35.2	0	2	248	0.00	29.893 
00:50	42.6	42.6	42.6	75	35.2	0	1	248	0.00	29.893 
00:55	42.6	42.6	42.6	76	35.6	0	1	248	0.00	29.893 
01:00	42.8	42.8	42.8	75	35.4	0	2	248	0.00	29.891 
01:05	42.8	42.8	42.8	76	35.8	0	1	248	0.00	29.891 
01:10	42.9	42.9	42.9	76	35.9	0	1	248	0.00	29.891 
01:15	43.1	43.1	43.1	75	35.7	0	3	248	0.00	29.888 
01:20	43.2	43.2	43.2	74	35.5	0	3	248	0.00	29.888 
01:25	43.3	43.3	43.3	73	35.2	1	3	248	0.00	29.888 
01:30	43.5	43.5	43.5	73	35.4	1	3	248	0.00	29.888 
01:35	43.6	43.6	43.6	73	35.5	0	2	248	0.00	29.888 
01:40	43.8	43.8	43.8	73	35.7	1	4	248	0.00	29.888 
01:45	43.8	43.8	43.8	73	35.7	0	2	248	0.00	29.891 
01:50	43.6	43.6	43.6	73	35.5	0	2	248	0.00	29.891 
01:55	43.8	43.8	43.8	73	35.7	1	3	248	0.00	29.891 
02:00	43.9	43.9	43.9	73	35.8	1	4	248	0.00	29.891 
02:05	43.9	43.9	43.9	73	35.8	0	2	270	0.00	29.891 
02:10	43.8	43.8	43.8	73	35.7	0	3	270	0.00	29.891 
02:15	43.8	43.8	43.8	73	35.7	1	3	248	0.00	29.894 
02:20	43.9	43.9	43.9	73	35.8	0	2	270	0.00	29.894 
02:25	43.9	43.9	43.9	73	35.8	1	4	248	0.00	29.894 
02:30	43.9	43.9	43.9	73	35.8	2	6	248	0.00	29.894 
02:35	43.9	43.9	43.9	73	35.8	1	3	248	0.00	29.894 
02:40	43.9	43.9	43.9	73	35.8	1	3	248	0.00	29.894 
02:45	43.8	43.8	43.8	73	35.7	1	3	248	0.00	29.895 
02:50	43.5	43.5	43.5	74	35.8	1	3	248	0.00	29.895 
02:55	43.3	43.3	43.3	75	35.9	1	3	248	0.00	29.895 
03:00	43.2	43.2	43.2	75	35.8	1	3	248	0.00	29.895 
03:05	43.1	43.1	43.1	76	36.1	1	2	248	0.00	29.895 
03:10	43.1	43.1	43.1	76	36.1	0	3	248	0.00	29.895 
03:15	43.1	43.1	43.1	76	36.1	1	3	248	0.00	29.896 
03:20	43.2	43.2	43.2	77	36.5	0	2	248	0.00	29.896 
03:25	43.3	43.3	43.3	77	36.6	1	3	248	0.00	29.896 
03:30	43.5	43.5	43.5	77	36.8	0	3	248	0.00	29.899 
03:35	43.5	43.5	43.5	76	36.4	1	3	248	0.00	29.899 
03:40	43.6	43.6	43.6	76	36.5	1	3	248	0.00	29.899 
03:45	43.8	43.8	43.8	76	36.7	1	4	248	0.00	29.900 
03:50	43.9	43.9	43.9	76	36.8	2	6	248	0.00	29.900 
03:55	44.1	44.1	44.1	75	36.7	1	4	248	0.00	29.900 
04:00	44.2	44.2	44.2	75	36.8	1	4	248	0.00	29.895 
04:05	44.2	44.2	44.2	75	36.8	1	6	248	0.00	29.895 
04:10	44.2	44.2	44.2	75	36.8	2	5	270	0.00	29.895 
04:15	44.2	44.2	44.2	75	36.8	1	4	248	0.00	29.896 
04:20	44.3	44.3	44.3	75	36.9	1	3	248	0.00	29.896 
04:25	44.3	44.3	44.3	75	36.9	1	4	248	0.00	29.896 
04:30	44.5	44.5	44.5	75	37.1	1	4	248	0.00	29.905 
04:35	44.5	44.5	44.5	75	37.1	1	4	248	0.00	29.905 
04:40	44.6	44.6	44.6	74	36.8	2	7	248	0.00	29.905 
04:45	44.6	44.6	44.6	74	36.8	1	4	248	0.00	29.905 
04:50	44.8	44.8	44.8	74	37.0	1	4	248	0.00	29.905 
04:55	44.8	44.8	44.8	74	37.0	1	3	248	0.00	29.905 
05:00	44.8	44.8	44.8	74	37.0	1	4	248	0.00	29.905 
05:05	44.8	44.8	44.8	75	37.4	1	3	248	0.00	29.905 
05:10	44.8	44.8	44.8	74	37.0	1	5	248	0.00	29.905 
05:15	44.8	44.8	44.8	74	37.0	1	3	248	0.00	29.907 
05:20	44.8	44.8	44.8	75	37.4	1	2	248	0.00	29.907 
05:25	44.8	44.8	44.8	75	37.4	1	3	248	0.00	29.907 
05:30	44.8	44.8	44.8	75	37.4	1	5	248	0.00	29.908 
05:35	44.8	44.8	44.8	75	37.4	1	5	270	0.00	29.908 
05:40	44.8	44.8	44.8	75	37.4	2	5	248	0.00	29.908 
05:45	44.8	44.8	44.8	75	37.4	1	2	248	0.00	29.915 
05:50	44.6	44.6	44.6	75	37.2	1	2	248	0.00	29.915 
05:55	44.6	44.6	44.6	75	37.2	2	7	248	0.00	29.915 
06:00	44.6	44.6	44.6	75	37.2	1	4	248	0.00	29.923 
06:05	44.6	44.6	44.6	75	37.2	1	4	248	0.00	29.923 
06:10	44.6	44.6	44.6	75	37.2	1	3	248	0.00	29.923 
06:15	44.6	44.6	44.6	75	37.2	1	4	248	0.00	29.925 
06:20	44.6	44.6	44.6	75	37.2	2	4	248	0.00	29.925 
06:25	44.6	44.6	44.6	76	37.5	1	5	248	0.00	29.925 
06:30	44.6	44.6	44.6	76	37.5	1	4	248	0.00	29.927 
06:35	44.6	44.6	44.6	76	37.5	1	5	270	0.00	29.927 
06:40	44.6	44.6	44.6	75	37.2	2	5	248	0.00	29.927 
06:45	44.8	44.8	44.8	76	37.7	1	3	248	0.00	29.934 
06:50	44.8	44.8	44.8	76	37.7	1	3	270	0.00	29.934 
06:55	44.8	44.8	44.8	76	37.7	0	3	248	0.00	29.934 
07:00	44.8	44.8	44.8	76	37.7	1	4	270	0.00	29.938 
07:05	44.8	44.8	44.8	76	37.7	1	3	248	0.00	29.938 
07:10	44.8	44.8	44.8	76	37.7	1	4	248	0.00	29.938 
07:15	44.8	44.8	44.8	76	37.7	1	4	270	0.00	29.940 
07:20	44.8	44.8	44.8	76	37.7	1	4	248	0.00	29.940 
07:25	44.8	44.8	44.8	76	37.7	1	3	270	0.00	29.940 
07:30	44.8	44.8	44.8	76	37.7	1	4	270	0.00	29.943 
07:35	44.8	44.8	44.8	76	37.7	0	2	202	0.00	29.943 
07:40	44.8	44.8	44.8	76	37.7	0	2	202	0.00	29.943 
07:45	44.8	44.8	44.8	77	38.0	0	4	202	0.00	29.941 
07:50	44.8	44.8	44.8	76	37.7	1	5	248	0.00	29.941 
07:55	44.8	44.8	44.8	77	38.0	0	3	248	0.00	29.941 
08:00	44.8	44.8	44.8	76	37.7	1	9	248	0.00	29.942 
08:05	44.9	44.9	44.9	76	37.8	1	4	248	0.00	29.942 
08:10	44.9	44.9	44.9	76	37.8	1	3	248	0.00	29.942 
08:15	44.9	44.9	44.9	76	37.8	1	3	248	0.00	29.944 
08:20	44.9	44.9	44.9	76	37.8	1	4	248	0.00	29.944 
08:25	45.1	45.1	45.1	76	38.0	1	3	248	0.00	29.944 
08:30	45.1	45.1	45.1	76	38.0	1	5	248	0.00	29.957 
08:35	45.1	45.1	45.1	76	38.0	1	4	248	0.00	29.957 
08:40	45.1	45.1	45.1	76	38.0	2	4	248	0.00	29.957 
08:45	45.2	45.2	45.2	76	38.1	1	4	248	0.00	29.954 
08:50	45.2	45.2	45.2	76	38.1	1	4	248	0.00	29.954 
08:55	45.2	45.2	45.2	76	38.1	1	4	248	0.00	29.954 
09:00	45.2	45.2	45.2	76	38.1	1	4	248	0.00	29.957 
09:05	45.4	45.4	45.4	76	38.3	0	3	248	0.00	29.957 
09:10	45.4	45.4	45.4	76	38.3	1	3	248	0.00	29.957 
09:15	45.5	45.5	45.5	76	38.4	1	2	248	0.00	29.958 
09:20	45.5	45.5	45.5	76	38.4	1	2	248	0.00	29.958 
09:25	45.7	45.7	45.7	75	38.2	1	4	248	0.00	29.958 
09:30	45.7	45.7	45.7	75	38.2	1	4	270	0.00	29.959 
09:35	45.8	45.8	45.8	75	38.3	1	4	248	0.00	29.959 
09:40	46.0	46.0	46.0	75	38.5	1	5	248	0.00	29.959 
09:45	46.1	46.1	46.1	75	38.6	1	5	248	0.00	29.968 
09:50	46.2	46.2	46.2	75	38.7	1	6	248	0.00	29.968 
09:55	46.4	46.4	46.4	75	38.9	1	4	248	0.00	29.968 
10:00	46.4	46.4	46.4	74	38.6	1	3	248	0.00	29.971 
10:05	46.5	46.5	46.5	74	38.7	1	3	248	0.00	29.971 
10:10	46.7	46.7	46.7	74	38.9	1	4	248	0.00	29.971 
10:15	46.8	46.8	46.8	73	38.6	2	4	248	0.00	29.970 
10:20	47.1	47.1	47.1	73	38.9	2	7	248	0.00	29.970 
10:25	47.3	47.3	47.3	73	39.1	2	6	248	0.00	29.970 
10:30	47.6	47.6	47.6	72	39.0	2	5	248	0.00	29.959 
10:35	47.7	47.7	47.7	72	39.1	2	5	248	0.00	29.959 
10:40	48.0	48.0	48.0	73	39.8	1	4	248	0.00	29.959 
10:45	48.3	48.3	48.3	72	39.7	2	7	270	0.00	29.958 
10:50	48.8	48.8	48.8	70	39.5	2	7	270	0.00	29.958 
10:55	48.9	48.9	48.9	70	39.6	1	6	248	0.00	29.958 
11:00	49.2	49.2	49.2	70	39.8	2	6	248	0.00	29.967 
11:05	49.5	49.5	49.5	70	40.1	1	3	248	0.00	29.967 
11:10	49.8	49.8	49.8	69	40.0	2	7	270	0.00	29.967 
11:15	50.1	50.1	50.1	69	40.3	1	4	248	0.00	29.962 
11:20	50.4	50.4	50.4	69	40.6	2	7	248	0.00	29.962 
11:25	50.5	50.5	50.5	68	40.3	1	4	248	0.00	29.962 
11:30	50.5	50.5	50.5	68	40.3	2	5	248	0.00	29.957 
11:35	50.7	50.7	50.7	68	40.5	1	5	248	0.00	29.957 
11:40	51.0	51.0	51.0	68	40.8	2	4	270	0.00	29.957 
11:45	51.1	51.1	51.1	67	40.5	2	4	248	0.00	29.961 
11:50	51.3	51.3	51.3	67	40.7	2	5	270	0.00	29.961 
11:55	51.6	51.6	51.6	66	40.6	2	6	248	0.00	29.961 
12:00	52.3	52.3	52.3	65	40.9	3	6	248	0.00	29.955 
12:05	53.3	53.3	53.3	64	41.4	2	4	248	0.00	29.955 
12:10	54.5	54.5	54.5	64	42.6	2	4	270	0.00	29.955 
12:15	55.0	55.0	55.0	62	42.2	2	5	248	0.00	29.951 
12:20	55.4	55.4	55.4	62	42.6	2	6	248	0.00	29.951 
12:25	55.7	55.7	55.7	60	42.0	2	11	270	0.00	29.951 
12:30	56.2	56.2	56.2	59	42.1	2	6	248	0.00	29.950 
12:35	56.5	56.5	56.5	59	42.3	2	6	248	0.00	29.950 
12:40	56.6	56.6	56.6	59	42.4	2	7	248	0.00	29.950 
12:45	57.0	57.0	57.0	59	42.8	2	7	248	0.00	29.945 
12:50	57.6	57.6	57.6	59	43.4	2	6	270	0.00	29.945 
12:55	57.8	57.8	57.8	55	41.7	4	10	270	0.00	29.945 
13:00	58.0	58.0	58.0	54	41.4	5	12	270	0.00	29.940 
13:05	57.8	57.8	57.8	55	41.7	3	7	248	0.00	29.940 
13:10	57.5	57.5	57.5	56	41.9	4	7	270	0.00	29.940 
13:15	57.8	57.8	57.8	57	42.7	3	6	248	0.00	29.932 
13:20	58.3	58.3	58.3	55	42.2	4	9	248	0.00	29.932 
13:25	58.1	58.1	58.1	54	41.5	3	10	270	0.00	29.932 
13:30	57.8	57.8	57.8	54	41.3	2	10	225	0.00	29.926 
13:35	57.6	57.6	57.6	55	41.6	3	9	248	0.00	29.926 
13:40	58.6	58.6	58.6	56	43.0	2	6	90	0.00	29.926 
13:45	59.2	59.2	59.2	54	42.6	4	9	270	0.00	29.917 
13:50	59.6	59.6	59.6	51	41.4	3	10	248	0.00	29.917 
13:55	59.6	59.6	59.6	51	41.4	4	9	270	0.00	29.917 
14:00	59.8	59.8	59.8	53	42.6	2	7	270	0.00	29.912 
14:05	60.1	60.1	60.1	50	41.4	3	11	248	0.00	29.912 
14:10	60.4	60.4	60.4	50	41.7	2	5	270	0.00	29.912 
14:15	60.4	60.4	60.4	50	41.7	4	11	270	0.00	29.902 
14:20	60.5	60.5	60.5	51	42.3	2	6	248	0.00	29.902 
14:25	60.5	60.5	60.5	50	41.8	3	9	248	0.00	29.902 
14:30	60.7	60.7	60.7	47	40.3	4	7	270	0.00	29.903 
14:35	60.7	60.7	60.7	50	41.9	3	7	248	0.00	29.903 
14:40	60.7	60.7	60.7	50	41.9	3	8	270	0.00	29.903 
14:45	60.5	60.5	60.5	49	41.2	2	6	270	0.00	29.899 
14:50	60.9	60.9	60.9	48	41.1	3	6	270	0.00	29.899 
14:55	60.9	60.9	60.9	51	42.6	3	7	248	0.00	29.899 
15:00	61.3	61.3	61.3	50	42.5	2	6	270	0.00	29.895 
15:05	61.8	61.8	61.8	51	43.5	2	6	248	0.00	29.895 
15:10	61.8	61.8	61.8	50	43.0	2	5	248	0.00	29.895 
15:15	62.1	62.1	62.1	49	42.7	2	6	270	0.00	29.883 
15:20	62.1	62.1	62.1	46	41.1	2	7	270	0.00	29.883 
15:25	61.8	61.8	61.8	47	41.4	3	9	248	0.00	29.883 
15:30	61.3	61.3	61.3	47	40.9	2	7	248	0.00	29.884 
15:35	61.3	61.3	61.3	46	40.3	3	6	248	0.00	29.884 
15:40	61.0	61.0	61.0	48	41.2	3	9	248	0.00	29.884 
15:45	61.0	61.0	61.0	48	41.2	2	5	248	0.00	29.884 
15:50	61.3	61.3	61.3	47	40.9	2	7	248	0.00	29.884 
15:55	62.0	62.0	62.0	47	41.5	2	5	270	0.00	29.884 
16:00	62.0	62.0	62.0	44	39.8	4	9	270	0.00	29.878 
16:05	62.0	62.0	62.0	44	39.8	2	7	270	0.00	29.878 
16:10	62.1	62.1	62.1	43	39.3	3	6	248	0.00	29.878 
16:15	62.3	62.3	62.3	47	41.8	1	5	270	0.00	29.868 
16:20	62.3	62.3	62.3	46	41.3	2	5	248	0.00	29.868 
16:25	62.0	62.0	62.0	47	41.5	1	4	0	0.00	29.868 
16:30	61.6	61.6	61.6	47	41.2	1	3	292	0.00	29.866 
16:35	61.5	61.5	61.5	46	40.5	1	5	225	0.00	29.866 
16:40	61.2	61.2	61.2	48	41.3	1	6	90	0.00	29.866 
16:45	61.0	61.0	61.0	46	40.1	1	5	90	0.00	29.864 
16:50	60.9	60.9	60.9	46	40.0	2	6	90	0.00	29.864 
16:55	60.5	60.5	60.5	44	38.5	2	7	90	0.00	29.864 
17:00	60.5	60.5	60.5	46	39.6	2	4	45	0.00	29.864 
17:05	60.5	60.5	60.5	47	40.2	1	5	90	0.00	29.864 
17:10	60.4	60.4	60.4	47	40.1	1	4	90	0.00	29.864 
17:15	60.2	60.2	60.2	47	39.9	1	4	112	0.00	29.862 
17:20	60.2	60.2	60.2	47	39.9	1	4	248	0.00	29.862 
17:25	60.2	60.2	60.2	49	41.0	1	4	90	0.00	29.862 
17:30	60.2	60.2	60.2	48	40.4	1	4	90	0.00	29.856 
17:35	59.9	59.9	59.9	47	39.6	1	2	338	0.00	29.856 
17:40	59.6	59.6	59.6	47	39.3	1	3	68	0.00	29.856 
17:45	59.3	59.3	59.3	48	39.6	1	4	68	0.00	29.865 
17:50	59.2	59.2	59.2	49	40.0	1	3	68	0.00	29.865 
17:55	59.0	59.0	59.0	50	40.4	1	3	90	0.00	29.865 
18:00	58.9	58.9	58.9	50	40.3	1	2	90	0.00	29.859 
18:05	58.7	58.7	58.7	51	40.6	0	2	112	0.00	29.859 
18:10	58.6	58.6	58.6	51	40.5	0	3	112	0.00	29.859 
18:15	58.4	58.4	58.4	51	40.3	1	3	112	0.00	29.862 
18:20	58.4	58.4	58.4	52	40.8	1	4	90	0.00	29.862 
18:25	58.3	58.3	58.3	52	40.8	1	2	90	0.00	29.862 
18:30	58.1	58.1	58.1	52	40.6	0	2	90	0.00	29.866 
18:35	58.0	58.0	58.0	52	40.5	1	2	90	0.00	29.866 
18:40	57.6	57.6	57.6	52	40.1	1	3	90	0.00	29.866 
18:45	57.5	57.5	57.5	53	40.5	0	3	112	0.00	29.854 
18:50	57.3	57.3	57.3	54	40.8	0	1	112	0.00	29.854 
18:55	57.2	57.2	57.2	54	40.7	0	1	112	0.00	29.854 
19:00	56.9	56.9	56.9	54	40.4	0	1	112	0.00	29.854 
19:05	56.6	56.6	56.6	55	40.6	0	3	112	0.00	29.854 
19:10	56.3	56.3	56.3	56	40.8	0	1	135	0.00	29.854 
19:15	56.0	56.0	56.0	56	40.5	0	1	135	0.00	29.855 
19:20	55.9	55.9	55.9	57	40.9	0	1	135	0.00	29.855 
19:25	55.7	55.7	55.7	57	40.7	0	1	135	0.00	29.855 
19:30	55.6	55.6	55.6	58	41.1	0	1	135	0.00	29.852 
19:35	55.3	55.3	55.3	59	41.2	0	1	135	0.00	29.852 
19:40	55.3	55.3	55.3	59	41.2	0	2	135	0.00	29.852 
19:45	55.3	55.3	55.3	58	40.8	0	2	112	0.00	29.851 
19:50	55.3	55.3	55.3	58	40.8	1	2	112	0.00	29.851 
19:55	55.1	55.1	55.1	58	40.6	0	2	135	0.00	29.851 
20:00	55.1	55.1	55.1	59	41.0	0	2	135	0.00	29.847 
20:05	55.0	55.0	55.0	59	40.9	0	1	135	0.00	29.847 
20:10	54.8	54.8	54.8	59	40.7	1	3	135	0.00	29.847 
20:15	54.7	54.7	54.7	59	40.7	1	3	112	0.00	29.841 
20:20	54.5	54.5	54.5	59	40.5	1	3	135	0.00	29.841 
20:25	54.4	54.4	54.4	59	40.4	1	3	112	0.00	29.841 
20:30	54.4	54.4	54.4	59	40.4	1	3	68	0.00	29.844 
20:35	54.2	54.2	54.2	60	40.6	0	2	90	0.00	29.844 
20:40	54.2	54.2	54.2	60	40.6	1	3	135	0.00	29.844 
20:45	54.1	54.1	54.1	60	40.5	1	5	112	0.00	29.840 
20:50	53.9	53.9	53.9	61	40.8	1	3	90	0.00	29.840 
20:55	53.8	53.8	53.8	61	40.7	1	6	112	0.00	29.840 
21:00	53.6	53.6	53.6	61	40.5	2	4	112	0.00	29.836 
21:05	53.5	53.5	53.5	61	40.4	1	3	68	0.00	29.836 
21:10	53.3	53.3	53.3	62	40.6	1	4	90	0.00	29.836 
21:15	53.2	53.2	53.2	62	40.5	1	3	90	0.00	29.835 
21:20	53.2	53.2	53.2	62	40.5	1	3	90	0.00	29.835 
21:25	53.1	53.1	53.1	62	40.4	1	5	90	0.00	29.835 
21:30	53.1	53.1	53.1	62	40.4	1	3	112	0.00	29.838 
21:35	52.9	52.9	52.9	62	40.2	1	3	112	0.00	29.838 
21:40	52.9	52.9	52.9	62	40.2	1	5	112	0.00	29.838 
21:45	52.8	52.8	52.8	62	40.1	1	4	112	0.00	29.833 
21:50	52.8	52.8	52.8	62	40.1	1	6	112	0.00	29.833 
21:55	52.8	52.8	52.8	62	40.1	1	6	112	0.00	29.833 
22:00	52.8	52.8	52.8	61	39.7	1	3	90	0.00	29.829 
22:05	52.8	52.8	52.8	62	40.1	1	3	90	0.00	29.829 
22:10	52.8	52.8	52.8	61	39.7	1	4	112	0.00	29.829 
22:15	52.8	52.8	52.8	62	40.1	1	4	112	0.00	29.817 
22:20	52.8	52.8	52.8	62	40.1	1	3	112	0.00	29.817 
22:25	52.8	52.8	52.8	62	40.1	1	3	90	0.00	29.817 
22:30	52.6	52.6	52.6	62	40.0	1	3	90	0.00	29.809 
22:35	52.5	52.5	52.5	62	39.9	1	3	90	0.00	29.809 
22:40	52.5	52.5	52.5	63	40.3	1	3	90	0.00	29.809 
22:45	52.3	52.3	52.3	63	40.1	1	3	112	0.00	29.806 
22:50	52.2	52.2	52.2	63	40.0	1	4	112	0.00	29.806 
22:55	52.2	52.2	52.2	63	40.0	0	2	112	0.00	29.806 
23:00	52.0	52.0	52.0	64	40.2	0	3	112	0.00	29.800 
23:05	52.0	52.0	52.0	64	40.2	1	3	112	0.00	29.800 
23:10	52.0	52.0	52.0	64	40.2	1	2	90	0.00	29.800 
23:15	51.9	51.9	51.9	64	40.1	1	3	135	0.00	29.793 
23:20	51.7	51.7	51.7	65	40.3	0	4	112	0.00	29.793 
23:25	51.6	51.6	51.6	65	40.2	0	2	112	0.00	29.793 
23:30	51.6	51.6	51.6	65	40.2	1	3	90	0.00	29.791 
23:35	51.4	51.4	51.4	65	40.0	1	2	112	0.00	29.791 
23:40	51.3	51.3	51.3	66	40.3	0	2	90	0.00	29.791 
23:45	51.3	51.3	51.3	66	40.3	1	3	90	0.00	29.790 
23:50	51.1	51.1	51.1	66	40.1	0	1	112	0.00	29.790 
23:55	51.1	51.1	51.1	66	40.1	0	2	112	0.00	29.790 

CoCoRaHS
IN-AL-39
A2 Web Hosting
Creative Commons License
GoDaddy
Look for:

loaded 2017-12-12 01:55:50 • last modified 2010-11-18 10:43:29
Privacy PolicyDisclaimer
• wx.awcolley.com is powered by PmWiki v.2002016 •
• all content (unless otherwise noted) © 2017 A W Colley